sensor_id;sensor_type;location;lat;lon;timestamp;temperature;humidity
7784;DHT22;19359;51.402;6.778;2023-02-28T00:00:10;-1.60;83.90
7784;DHT22;19359;51.402;6.778;2023-02-28T00:02:38;-1.50;65.30
7784;DHT22;19359;51.402;6.778;2023-02-28T00:05:07;-1.70;65.80
7784;DHT22;19359;51.402;6.778;2023-02-28T00:12:28;-2.00;84.90
7784;DHT22;19359;51.402;6.778;2023-02-28T00:14:56;-1.90;85.10
7784;DHT22;19359;51.402;6.778;2023-02-28T00:17:22;-2.00;85.00
7784;DHT22;19359;51.402;6.778;2023-02-28T00:19:50;-1.90;57.60
7784;DHT22;19359;51.402;6.778;2023-02-28T00:22:18;-2.20;85.20
7784;DHT22;19359;51.402;6.778;2023-02-28T00:24:46;-2.00;85.90
7784;DHT22;19359;51.402;6.778;2023-02-28T00:27:13;-2.00;86.40
7784;DHT22;19359;51.402;6.778;2023-02-28T00:32:08;-2.10;87.30
7784;DHT22;19359;51.402;6.778;2023-02-28T00:37:04;-2.10;58.90
7784;DHT22;19359;51.402;6.778;2023-02-28T00:41:58;-2.10;88.50
7784;DHT22;19359;51.402;6.778;2023-02-28T00:49:20;-2.40;63.10
7784;DHT22;19359;51.402;6.778;2023-02-28T00:56:41;-2.20;80.30
7784;DHT22;19359;51.402;6.778;2023-02-28T01:04:03;-2.20;73.40
7784;DHT22;19359;51.402;6.778;2023-02-28T01:06:31;-2.10;66.30
7784;DHT22;19359;51.402;6.778;2023-02-28T01:23:44;-2.10;67.00
7784;DHT22;19359;51.402;6.778;2023-02-28T01:26:14;-2.10;66.00
7784;DHT22;19359;51.402;6.778;2023-02-28T01:31:08;-2.20;64.80
7784;DHT22;19359;51.402;6.778;2023-02-28T01:33:36;-2.00;68.00
7784;DHT22;19359;51.402;6.778;2023-02-28T01:36:05;-1.90;70.70
7784;DHT22;19359;51.402;6.778;2023-02-28T01:41:01;-1.60;66.90
7784;DHT22;19359;51.402;6.778;2023-02-28T01:43:30;-1.80;62.30
7784;DHT22;19359;51.402;6.778;2023-02-28T01:45:58;-1.60;70.60
7784;DHT22;19359;51.402;6.778;2023-02-28T01:48:27;-1.80;59.80
7784;DHT22;19359;51.402;6.778;2023-02-28T01:50:58;-1.70;58.80
7784;DHT22;19359;51.402;6.778;2023-02-28T01:53:31;-1.70;60.20
7784;DHT22;19359;51.402;6.778;2023-02-28T01:58:28;-1.70;60.10
7784;DHT22;19359;51.402;6.778;2023-02-28T02:03:23;-1.60;59.10
7784;DHT22;19359;51.402;6.778;2023-02-28T02:05:50;-1.50;82.10
7784;DHT22;19359;51.402;6.778;2023-02-28T02:08:19;-1.70;58.60
7784;DHT22;19359;51.402;6.778;2023-02-28T02:10:48;-1.60;56.90
7784;DHT22;19359;51.402;6.778;2023-02-28T02:15:57;-1.50;56.20
7784;DHT22;19359;51.402;6.778;2023-02-28T02:18:30;-1.60;56.30
7784;DHT22;19359;51.402;6.778;2023-02-28T02:24:24;-1.70;54.60
7784;DHT22;19359;51.402;6.778;2023-02-28T02:27:08;-1.80;50.60
7784;DHT22;19359;51.402;6.778;2023-02-28T02:32:55;-1.90;56.20
7784;DHT22;19359;51.402;6.778;2023-02-28T02:35:28;-1.90;55.30
7784;DHT22;19359;51.402;6.778;2023-02-28T02:37:59;-2.00;55.90
7784;DHT22;19359;51.402;6.778;2023-02-28T02:40:31;-2.10;84.50
7784;DHT22;19359;51.402;6.778;2023-02-28T02:43:06;-2.10;54.90
7784;DHT22;19359;51.402;6.778;2023-02-28T02:45:38;-2.30;81.80
7784;DHT22;19359;51.402;6.778;2023-02-28T02:48:09;-2.30;82.40
7784;DHT22;19359;51.402;6.778;2023-02-28T02:50:42;-2.30;83.00
7784;DHT22;19359;51.402;6.778;2023-02-28T02:53:11;-2.30;83.60
7784;DHT22;19359;51.402;6.778;2023-02-28T02:55:41;-2.40;85.10
7784;DHT22;19359;51.402;6.778;2023-02-28T02:58:13;-2.10;57.70
7784;DHT22;19359;51.402;6.778;2023-02-28T03:00:42;-2.50;85.30
7784;DHT22;19359;51.402;6.778;2023-02-28T03:03:12;-2.70;58.80
7784;DHT22;19359;51.402;6.778;2023-02-28T03:05:45;-2.70;59.60
7784;DHT22;19359;51.402;6.778;2023-02-28T03:08:12;-2.60;88.00
7784;DHT22;19359;51.402;6.778;2023-02-28T03:10:40;-2.80;60.10
7784;DHT22;19359;51.402;6.778;2023-02-28T03:13:26;-2.80;88.50
7784;DHT22;19359;51.402;6.778;2023-02-28T03:16:15;-2.60;62.20
7784;DHT22;19359;51.402;6.778;2023-02-28T03:18:54;-2.60;68.10
7784;DHT22;19359;51.402;6.778;2023-02-28T03:21:29;-3.10;61.50
7784;DHT22;19359;51.402;6.778;2023-02-28T03:24:04;-2.90;90.00
7784;DHT22;19359;51.402;6.778;2023-02-28T03:26:36;-2.80;61.40
7784;DHT22;19359;51.402;6.778;2023-02-28T03:29:10;-2.60;90.50
7784;DHT22;19359;51.402;6.778;2023-02-28T03:31:46;-2.90;90.00
7784;DHT22;19359;51.402;6.778;2023-02-28T03:34:18;-2.60;90.80
7784;DHT22;19359;51.402;6.778;2023-02-28T03:36:52;-3.00;90.30
7784;DHT22;19359;51.402;6.778;2023-02-28T03:39:22;-3.10;61.80
7784;DHT22;19359;51.402;6.778;2023-02-28T03:41:52;-3.00;62.40
7784;DHT22;19359;51.402;6.778;2023-02-28T03:44:23;-3.00;63.20
7784;DHT22;19359;51.402;6.778;2023-02-28T03:46:54;-3.00;62.80
7784;DHT22;19359;51.402;6.778;2023-02-28T03:49:26;-3.00;65.50
7784;DHT22;19359;51.402;6.778;2023-02-28T03:51:56;-2.90;66.90
7784;DHT22;19359;51.402;6.778;2023-02-28T03:54:29;-2.80;69.50
7784;DHT22;19359;51.402;6.778;2023-02-28T03:56:59;-2.60;68.10
7784;DHT22;19359;51.402;6.778;2023-02-28T03:59:33;-2.80;67.00
7784;DHT22;19359;51.402;6.778;2023-02-28T04:02:01;-2.80;65.60
7784;DHT22;19359;51.402;6.778;2023-02-28T04:07:04;-2.90;65.10
7784;DHT22;19359;51.402;6.778;2023-02-28T04:09:31;-3.00;71.50
7784;DHT22;19359;51.402;6.778;2023-02-28T04:11:57;-2.90;90.90
7784;DHT22;19359;51.402;6.778;2023-02-28T04:16:52;-2.90;90.70
7784;DHT22;19359;51.402;6.778;2023-02-28T04:21:47;-2.90;65.70
7784;DHT22;19359;51.402;6.778;2023-02-28T04:24:17;-3.10;91.50
7784;DHT22;19359;51.402;6.778;2023-02-28T04:26:46;-3.00;91.10
7784;DHT22;19359;51.402;6.778;2023-02-28T04:29:14;-3.10;90.90
7784;DHT22;19359;51.402;6.778;2023-02-28T04:36:38;-3.30;91.00
7784;DHT22;19359;51.402;6.778;2023-02-28T04:39:04;-3.10;91.30
7784;DHT22;19359;51.402;6.778;2023-02-28T04:41:32;-3.30;64.40
7784;DHT22;19359;51.402;6.778;2023-02-28T04:43:59;-3.30;91.10
7784;DHT22;19359;51.402;6.778;2023-02-28T04:46:26;-3.40;91.20
7784;DHT22;19359;51.402;6.778;2023-02-28T04:48:52;-3.40;91.40
7784;DHT22;19359;51.402;6.778;2023-02-28T04:51:20;-2.90;66.70
7784;DHT22;19359;51.402;6.778;2023-02-28T04:53:47;-3.50;92.30
7784;DHT22;19359;51.402;6.778;2023-02-28T04:56:15;-3.40;92.60
7784;DHT22;19359;51.402;6.778;2023-02-28T04:58:44;-3.30;68.60
7784;DHT22;19359;51.402;6.778;2023-02-28T05:01:20;-3.30;94.80
7784;DHT22;19359;51.402;6.778;2023-02-28T05:03:47;-3.10;93.50
7784;DHT22;19359;51.402;6.778;2023-02-28T05:06:15;-3.10;92.60
7784;DHT22;19359;51.402;6.778;2023-02-28T05:08:42;-3.00;92.10
7784;DHT22;19359;51.402;6.778;2023-02-28T05:11:14;-2.90;66.60
7784;DHT22;19359;51.402;6.778;2023-02-28T05:16:09;-2.70;64.40
7784;DHT22;19359;51.402;6.778;2023-02-28T05:23:31;-2.60;84.70
7784;DHT22;19359;51.402;6.778;2023-02-28T05:25:57;-2.60;83.40
7784;DHT22;19359;51.402;6.778;2023-02-28T05:28:24;-2.50;84.10
7784;DHT22;19359;51.402;6.778;2023-02-28T05:30:51;-2.00;80.90
7784;DHT22;19359;51.402;6.778;2023-02-28T05:33:19;-2.60;79.40
7784;DHT22;19359;51.402;6.778;2023-02-28T05:35:46;-2.50;79.10
7784;DHT22;19359;51.402;6.778;2023-02-28T05:43:10;-2.10;73.20
7784;DHT22;19359;51.402;6.778;2023-02-28T05:45:37;-2.20;70.20
7784;DHT22;19359;51.402;6.778;2023-02-28T05:48:04;-2.10;69.30
7784;DHT22;19359;51.402;6.778;2023-02-28T05:50:32;-2.00;40.70
7784;DHT22;19359;51.402;6.778;2023-02-28T05:52:59;-2.10;64.50
7784;DHT22;19359;51.402;6.778;2023-02-28T05:55:26;-2.10;64.00
7784;DHT22;19359;51.402;6.778;2023-02-28T05:57:52;-2.00;62.40
7784;DHT22;19359;51.402;6.778;2023-02-28T06:00:20;-2.00;62.30
7784;DHT22;19359;51.402;6.778;2023-02-28T06:02:46;-2.00;36.10
7784;DHT22;19359;51.402;6.778;2023-02-28T06:05:16;-1.90;58.40
7784;DHT22;19359;51.402;6.778;2023-02-28T06:07:44;-1.90;55.60
7784;DHT22;19359;51.402;6.778;2023-02-28T06:10:11;-2.00;53.60
7784;DHT22;19359;51.402;6.778;2023-02-28T06:12:39;-2.30;54.70
7784;DHT22;19359;51.402;6.778;2023-02-28T06:15:10;-1.70;53.70
7784;DHT22;19359;51.402;6.778;2023-02-28T06:17:38;-1.90;54.30
7784;DHT22;19359;51.402;6.778;2023-02-28T06:20:06;-1.90;54.40
7784;DHT22;19359;51.402;6.778;2023-02-28T06:22:34;-2.40;51.90
7784;DHT22;19359;51.402;6.778;2023-02-28T06:25:02;-2.10;53.90
7784;DHT22;19359;51.402;6.778;2023-02-28T06:27:30;-2.00;54.50
7784;DHT22;19359;51.402;6.778;2023-02-28T06:29:57;-2.00;55.90
7784;DHT22;19359;51.402;6.778;2023-02-28T06:32:24;-2.10;55.90
7784;DHT22;19359;51.402;6.778;2023-02-28T06:34:51;-2.00;55.90
7784;DHT22;19359;51.402;6.778;2023-02-28T06:37:18;-2.00;56.40
7784;DHT22;19359;51.402;6.778;2023-02-28T06:39:45;-1.90;55.70
7784;DHT22;19359;51.402;6.778;2023-02-28T06:42:13;-2.00;55.90
7784;DHT22;19359;51.402;6.778;2023-02-28T06:47:08;-2.00;56.60
7784;DHT22;19359;51.402;6.778;2023-02-28T06:49:36;-2.20;56.40
7784;DHT22;19359;51.402;6.778;2023-02-28T06:52:04;-2.20;58.10
7784;DHT22;19359;51.402;6.778;2023-02-28T06:54:31;-2.40;59.60
7784;DHT22;19359;51.402;6.778;2023-02-28T06:56:58;-2.30;59.50
7784;DHT22;19359;51.402;6.778;2023-02-28T06:59:26;-1.90;59.60
7784;DHT22;19359;51.402;6.778;2023-02-28T07:01:52;-2.10;58.00
7784;DHT22;19359;51.402;6.778;2023-02-28T07:06:47;-2.20;57.40
7784;DHT22;19359;51.402;6.778;2023-02-28T07:11:41;-1.90;53.60
7784;DHT22;19359;51.402;6.778;2023-02-28T07:14:08;-1.90;55.40
7784;DHT22;19359;51.402;6.778;2023-02-28T07:16:36;-1.90;52.70
7784;DHT22;19359;51.402;6.778;2023-02-28T07:19:03;-1.80;51.70
7784;DHT22;19359;51.402;6.778;2023-02-28T07:23:57;-1.70;50.10
7784;DHT22;19359;51.402;6.778;2023-02-28T07:26:24;-1.60;48.80
7784;DHT22;19359;51.402;6.778;2023-02-28T07:31:18;-1.50;48.90
7784;DHT22;19359;51.402;6.778;2023-02-28T07:33:46;-1.40;47.60
7784;DHT22;19359;51.402;6.778;2023-02-28T07:36:15;-1.40;44.50
7784;DHT22;19359;51.402;6.778;2023-02-28T07:38:45;-1.40;42.60
7784;DHT22;19359;51.402;6.778;2023-02-28T07:41:14;-1.20;38.90
7784;DHT22;19359;51.402;6.778;2023-02-28T07:43:40;-1.10;19.00
7784;DHT22;19359;51.402;6.778;2023-02-28T07:46:09;-1.10;35.30
7784;DHT22;19359;51.402;6.778;2023-02-28T07:48:37;-0.60;34.20
7784;DHT22;19359;51.402;6.778;2023-02-28T07:51:05;-1.10;31.50
7784;DHT22;19359;51.402;6.778;2023-02-28T07:53:32;-0.90;28.40
7784;DHT22;19359;51.402;6.778;2023-02-28T07:56:00;-0.80;25.50
7784;DHT22;19359;51.402;6.778;2023-02-28T07:58:28;-0.80;19.70
7784;DHT22;19359;51.402;6.778;2023-02-28T08:00:56;-0.90;16.70
7784;DHT22;19359;51.402;6.778;2023-02-28T08:03:24;-0.50;13.50
7784;DHT22;19359;51.402;6.778;2023-02-28T08:05:51;-0.40;9.70
7784;DHT22;19359;51.402;6.778;2023-02-28T08:10:47;-0.20;8.00
7784;DHT22;19359;51.402;6.778;2023-02-28T08:13:14;-0.10;7.20
7784;DHT22;19359;51.402;6.778;2023-02-28T08:15:41;-0.10;1.00
7784;DHT22;19359;51.402;6.778;2023-02-28T08:18:08;0.80;4.60
7784;DHT22;19359;51.402;6.778;2023-02-28T08:20:35;0.20;1.00
7784;DHT22;19359;51.402;6.778;2023-02-28T08:23:01;0.30;1.00
7784;DHT22;19359;51.402;6.778;2023-02-28T08:25:29;0.50;1.00
7784;DHT22;19359;51.402;6.778;2023-02-28T08:27:56;0.50;1.00
7784;DHT22;19359;51.402;6.778;2023-02-28T08:30:23;0.50;1.00
7784;DHT22;19359;51.402;6.778;2023-02-28T08:32:50;0.50;1.00
7784;DHT22;19359;51.402;6.778;2023-02-28T08:35:16;0.80;1.00
7784;DHT22;19359;51.402;6.778;2023-02-28T08:37:43;0.90;1.00
7784;DHT22;19359;51.402;6.778;2023-02-28T08:40:10;1.00;1.00
7784;DHT22;19359;51.402;6.778;2023-02-28T08:42:44;1.10;1.00
7784;DHT22;19359;51.402;6.778;2023-02-28T08:45:11;1.30;1.00
7784;DHT22;19359;51.402;6.778;2023-02-28T08:50:05;1.20;1.00
7784;DHT22;19359;51.402;6.778;2023-02-28T08:52:32;1.50;1.00
7784;DHT22;19359;51.402;6.778;2023-02-28T08:57:26;1.50;1.00
7784;DHT22;19359;51.402;6.778;2023-02-28T08:59:54;1.50;1.00
7784;DHT22;19359;51.402;6.778;2023-02-28T09:04:48;1.90;1.00
7784;DHT22;19359;51.402;6.778;2023-02-28T09:07:14;2.00;1.00
7784;DHT22;19359;51.402;6.778;2023-02-28T09:09:41;2.00;1.00
7784;DHT22;19359;51.402;6.778;2023-02-28T09:12:19;1.70;1.00
7784;DHT22;19359;51.402;6.778;2023-02-28T09:14:46;2.20;1.00
7784;DHT22;19359;51.402;6.778;2023-02-28T09:17:14;2.20;1.00
7784;DHT22;19359;51.402;6.778;2023-02-28T09:19:40;2.30;1.00
7784;DHT22;19359;51.402;6.778;2023-02-28T09:22:08;2.70;1.00
7784;DHT22;19359;51.402;6.778;2023-02-28T09:24:35;2.60;1.00
7784;DHT22;19359;51.402;6.778;2023-02-28T09:27:02;2.70;1.00
7784;DHT22;19359;51.402;6.778;2023-02-28T09:29:29;2.60;1.00
7784;DHT22;19359;51.402;6.778;2023-02-28T09:31:56;2.70;1.00
7784;DHT22;19359;51.402;6.778;2023-02-28T09:34:25;2.70;1.00
7784;DHT22;19359;51.402;6.778;2023-02-28T09:39:20;2.70;1.00
7784;DHT22;19359;51.402;6.778;2023-02-28T09:41:50;2.80;1.00
7784;DHT22;19359;51.402;6.778;2023-02-28T09:44:22;2.90;1.00
7784;DHT22;19359;51.402;6.778;2023-02-28T09:46:55;2.80;1.00
7784;DHT22;19359;51.402;6.778;2023-02-28T09:49:31;2.90;1.00
7784;DHT22;19359;51.402;6.778;2023-02-28T09:52:02;3.00;1.00
7784;DHT22;19359;51.402;6.778;2023-02-28T09:54:31;3.10;1.00
7784;DHT22;19359;51.402;6.778;2023-02-28T09:57:01;3.20;1.00
7784;DHT22;19359;51.402;6.778;2023-02-28T09:59:41;3.20;1.00
7784;DHT22;19359;51.402;6.778;2023-02-28T10:02:19;3.20;1.00
7784;DHT22;19359;51.402;6.778;2023-02-28T10:04:51;3.30;1.00
7784;DHT22;19359;51.402;6.778;2023-02-28T10:07:35;3.20;1.00
7784;DHT22;19359;51.402;6.778;2023-02-28T10:10:10;3.30;1.00
7784;DHT22;19359;51.402;6.778;2023-02-28T10:12:43;3.20;1.00
7784;DHT22;19359;51.402;6.778;2023-02-28T10:15:14;3.20;1.00
7784;DHT22;19359;51.402;6.778;2023-02-28T10:20:13;3.30;1.00
7784;DHT22;19359;51.402;6.778;2023-02-28T10:22:44;3.40;1.00
7784;DHT22;19359;51.402;6.778;2023-02-28T10:25:19;3.70;1.00
7784;DHT22;19359;51.402;6.778;2023-02-28T10:27:46;3.70;1.00
7784;DHT22;19359;51.402;6.778;2023-02-28T10:30:13;3.80;1.00
7784;DHT22;19359;51.402;6.778;2023-02-28T10:32:45;3.90;1.00
7784;DHT22;19359;51.402;6.778;2023-02-28T10:35:16;4.00;1.00
7784;DHT22;19359;51.402;6.778;2023-02-28T10:37:45;3.80;1.00
7784;DHT22;19359;51.402;6.778;2023-02-28T10:40:27;3.80;1.00
7784;DHT22;19359;51.402;6.778;2023-02-28T10:42:56;4.00;1.00
7784;DHT22;19359;51.402;6.778;2023-02-28T10:45:24;3.90;1.00
7784;DHT22;19359;51.402;6.778;2023-02-28T10:47:53;3.80;1.00
7784;DHT22;19359;51.402;6.778;2023-02-28T10:50:37;3.90;1.00
7784;DHT22;19359;51.402;6.778;2023-02-28T10:53:17;4.00;1.00
7784;DHT22;19359;51.402;6.778;2023-02-28T10:55:56;4.10;1.00
7784;DHT22;19359;51.402;6.778;2023-02-28T10:58:26;4.10;1.00
7784;DHT22;19359;51.402;6.778;2023-02-28T11:00:54;3.80;1.00
7784;DHT22;19359;51.402;6.778;2023-02-28T11:03:29;3.80;1.00
7784;DHT22;19359;51.402;6.778;2023-02-28T11:05:58;3.70;1.00
7784;DHT22;19359;51.402;6.778;2023-02-28T11:08:25;3.70;1.00
7784;DHT22;19359;51.402;6.778;2023-02-28T11:10:57;3.50;1.00
7784;DHT22;19359;51.402;6.778;2023-02-28T11:13:27;3.60;1.00
7784;DHT22;19359;51.402;6.778;2023-02-28T11:15:55;3.60;1.00
7784;DHT22;19359;51.402;6.778;2023-02-28T11:18:27;3.50;1.00
7784;DHT22;19359;51.402;6.778;2023-02-28T11:20:58;3.60;1.00
7784;DHT22;19359;51.402;6.778;2023-02-28T11:25:57;3.70;1.00
7784;DHT22;19359;51.402;6.778;2023-02-28T11:31:05;3.90;1.00
7784;DHT22;19359;51.402;6.778;2023-02-28T11:33:40;4.10;1.00
7784;DHT22;19359;51.402;6.778;2023-02-28T11:36:12;4.10;1.00
7784;DHT22;19359;51.402;6.778;2023-02-28T11:38:40;4.00;1.00
7784;DHT22;19359;51.402;6.778;2023-02-28T11:46:26;3.70;1.00
7784;DHT22;19359;51.402;6.778;2023-02-28T11:49:03;3.70;1.00
7784;DHT22;19359;51.402;6.778;2023-02-28T11:51:34;3.80;1.00
7784;DHT22;19359;51.402;6.778;2023-02-28T11:54:25;4.00;1.00
7784;DHT22;19359;51.402;6.778;2023-02-28T11:56:57;4.60;1.00
7784;DHT22;19359;51.402;6.778;2023-02-28T12:02:24;4.60;1.00
7784;DHT22;19359;51.402;6.778;2023-02-28T12:05:05;4.60;1.00
7784;DHT22;19359;51.402;6.778;2023-02-28T12:07:45;4.60;1.00
7784;DHT22;19359;51.402;6.778;2023-02-28T12:10:21;4.50;1.00
7784;DHT22;19359;51.402;6.778;2023-02-28T12:13:02;4.40;1.00
7784;DHT22;19359;51.402;6.778;2023-02-28T12:15:45;4.30;1.00
7784;DHT22;19359;51.402;6.778;2023-02-28T12:18:40;4.30;1.00
7784;DHT22;19359;51.402;6.778;2023-02-28T12:21:17;4.40;1.00
7784;DHT22;19359;51.402;6.778;2023-02-28T12:24:04;4.40;1.00
7784;DHT22;19359;51.402;6.778;2023-02-28T12:26:38;4.60;1.00
7784;DHT22;19359;51.402;6.778;2023-02-28T12:29:12;4.80;1.00
7784;DHT22;19359;51.402;6.778;2023-02-28T12:34:12;5.70;1.00
7784;DHT22;19359;51.402;6.778;2023-02-28T12:36:41;4.60;1.00
7784;DHT22;19359;51.402;6.778;2023-02-28T12:39:15;5.10;1.00
7784;DHT22;19359;51.402;6.778;2023-02-28T12:41:47;4.70;1.00
7784;DHT22;19359;51.402;6.778;2023-02-28T12:44:19;4.80;1.00
7784;DHT22;19359;51.402;6.778;2023-02-28T12:46:48;5.00;1.00
7784;DHT22;19359;51.402;6.778;2023-02-28T12:49:19;5.00;1.00
7784;DHT22;19359;51.402;6.778;2023-02-28T12:51:48;4.90;1.00
7784;DHT22;19359;51.402;6.778;2023-02-28T12:54:21;5.10;1.00
7784;DHT22;19359;51.402;6.778;2023-02-28T12:56:56;5.00;1.00
7784;DHT22;19359;51.402;6.778;2023-02-28T12:59:29;5.10;1.00
7784;DHT22;19359;51.402;6.778;2023-02-28T13:02:26;5.40;1.00
7784;DHT22;19359;51.402;6.778;2023-02-28T13:08:24;7.40;1.00
7784;DHT22;19359;51.402;6.778;2023-02-28T13:16:02;8.90;1.00
7784;DHT22;19359;51.402;6.778;2023-02-28T13:18:35;8.90;1.00
7784;DHT22;19359;51.402;6.778;2023-02-28T13:21:06;8.80;1.00
7784;DHT22;19359;51.402;6.778;2023-02-28T13:23:40;8.80;1.00
7784;DHT22;19359;51.402;6.778;2023-02-28T13:29:31;10.30;1.00
7784;DHT22;19359;51.402;6.778;2023-02-28T13:32:18;10.40;1.00
7784;DHT22;19359;51.402;6.778;2023-02-28T13:38:24;11.50;1.00
7784;DHT22;19359;51.402;6.778;2023-02-28T13:40:51;11.40;1.00
7784;DHT22;19359;51.402;6.778;2023-02-28T13:46:10;11.30;1.00
7784;DHT22;19359;51.402;6.778;2023-02-28T13:48:38;11.30;1.00
7784;DHT22;19359;51.402;6.778;2023-02-28T13:51:38;11.50;1.00
7784;DHT22;19359;51.402;6.778;2023-02-28T13:54:22;11.70;1.00
7784;DHT22;19359;51.402;6.778;2023-02-28T13:57:01;11.20;1.00
7784;DHT22;19359;51.402;6.778;2023-02-28T13:59:37;11.90;1.00
7784;DHT22;19359;51.402;6.778;2023-02-28T14:02:32;11.60;1.00
7784;DHT22;19359;51.402;6.778;2023-02-28T14:05:04;8.80;1.00
7784;DHT22;19359;51.402;6.778;2023-02-28T14:07:33;10.30;1.00
7784;DHT22;19359;51.402;6.778;2023-02-28T14:10:05;9.70;1.00
7784;DHT22;19359;51.402;6.778;2023-02-28T14:12:53;10.20;1.00
7784;DHT22;19359;51.402;6.778;2023-02-28T14:15:34;10.40;1.00
7784;DHT22;19359;51.402;6.778;2023-02-28T14:18:05;10.20;1.00
7784;DHT22;19359;51.402;6.778;2023-02-28T14:20:40;10.10;1.00
7784;DHT22;19359;51.402;6.778;2023-02-28T14:23:12;10.00;1.00
7784;DHT22;19359;51.402;6.778;2023-02-28T14:25:51;9.10;1.00
7784;DHT22;19359;51.402;6.778;2023-02-28T14:28:32;8.50;1.00
7784;DHT22;19359;51.402;6.778;2023-02-28T14:31:07;7.60;1.00
7784;DHT22;19359;51.402;6.778;2023-02-28T14:33:48;7.70;1.00
7784;DHT22;19359;51.402;6.778;2023-02-28T14:36:26;8.30;1.00
7784;DHT22;19359;51.402;6.778;2023-02-28T14:41:28;9.30;1.00
7784;DHT22;19359;51.402;6.778;2023-02-28T14:43:57;8.60;1.00
7784;DHT22;19359;51.402;6.778;2023-02-28T14:46:28;8.40;1.00
7784;DHT22;19359;51.402;6.778;2023-02-28T14:48:56;9.10;1.00
7784;DHT22;19359;51.402;6.778;2023-02-28T14:51:24;9.40;1.00
7784;DHT22;19359;51.402;6.778;2023-02-28T14:53:57;9.30;1.00
7784;DHT22;19359;51.402;6.778;2023-02-28T14:56:26;9.30;1.00
7784;DHT22;19359;51.402;6.778;2023-02-28T14:58:56;9.70;1.00
7784;DHT22;19359;51.402;6.778;2023-02-28T15:03:59;10.40;1.00
7784;DHT22;19359;51.402;6.778;2023-02-28T15:06:26;10.60;1.00
7784;DHT22;19359;51.402;6.778;2023-02-28T15:09:15;10.20;1.00
7784;DHT22;19359;51.402;6.778;2023-02-28T15:11:46;11.00;1.00
7784;DHT22;19359;51.402;6.778;2023-02-28T15:14:19;11.80;1.00
7784;DHT22;19359;51.402;6.778;2023-02-28T15:19:20;12.50;1.00
7784;DHT22;19359;51.402;6.778;2023-02-28T15:21:52;10.70;1.00
7784;DHT22;19359;51.402;6.778;2023-02-28T15:24:23;10.50;1.00
7784;DHT22;19359;51.402;6.778;2023-02-28T15:26:57;10.60;1.00
7784;DHT22;19359;51.402;6.778;2023-02-28T15:29:27;10.10;1.00
7784;DHT22;19359;51.402;6.778;2023-02-28T15:31:59;10.00;1.00
7784;DHT22;19359;51.402;6.778;2023-02-28T15:34:34;9.60;1.00
7784;DHT22;19359;51.402;6.778;2023-02-28T15:39:48;9.20;1.00
7784;DHT22;19359;51.402;6.778;2023-02-28T15:42:19;8.90;1.00
7784;DHT22;19359;51.402;6.778;2023-02-28T15:44:46;8.50;1.00
7784;DHT22;19359;51.402;6.778;2023-02-28T15:49:47;6.90;1.00
7784;DHT22;19359;51.402;6.778;2023-02-28T15:52:17;8.30;1.00
7784;DHT22;19359;51.402;6.778;2023-02-28T15:54:46;8.00;1.00
7784;DHT22;19359;51.402;6.778;2023-02-28T15:57:16;7.60;1.00
7784;DHT22;19359;51.402;6.778;2023-02-28T15:59:50;7.70;1.00
7784;DHT22;19359;51.402;6.778;2023-02-28T16:02:19;7.50;1.00
7784;DHT22;19359;51.402;6.778;2023-02-28T16:05:18;7.10;1.00
7784;DHT22;19359;51.402;6.778;2023-02-28T16:07:46;7.10;1.00
7784;DHT22;19359;51.402;6.778;2023-02-28T16:10:14;7.20;1.00
7784;DHT22;19359;51.402;6.778;2023-02-28T16:12:41;7.30;1.00
7784;DHT22;19359;51.402;6.778;2023-02-28T16:15:18;6.90;1.00
7784;DHT22;19359;51.402;6.778;2023-02-28T16:17:46;6.60;1.00
7784;DHT22;19359;51.402;6.778;2023-02-28T16:20:16;6.40;1.00
7784;DHT22;19359;51.402;6.778;2023-02-28T16:22:43;6.70;1.00
7784;DHT22;19359;51.402;6.778;2023-02-28T16:25:12;7.10;1.00
7784;DHT22;19359;51.402;6.778;2023-02-28T16:27:40;6.80;1.00
7784;DHT22;19359;51.402;6.778;2023-02-28T16:32:40;6.30;1.00
7784;DHT22;19359;51.402;6.778;2023-02-28T16:35:10;7.80;1.00
7784;DHT22;19359;51.402;6.778;2023-02-28T16:37:38;5.60;1.00
7784;DHT22;19359;51.402;6.778;2023-02-28T16:40:06;5.20;1.00
7784;DHT22;19359;51.402;6.778;2023-02-28T16:45:00;4.70;1.00
7784;DHT22;19359;51.402;6.778;2023-02-28T16:47:27;4.80;1.00
7784;DHT22;19359;51.402;6.778;2023-02-28T16:49:54;4.60;1.00
7784;DHT22;19359;51.402;6.778;2023-02-28T16:52:21;4.50;1.00
7784;DHT22;19359;51.402;6.778;2023-02-28T16:54:49;4.30;1.00
7784;DHT22;19359;51.402;6.778;2023-02-28T16:57:19;4.50;1.00
7784;DHT22;19359;51.402;6.778;2023-02-28T16:59:46;3.80;1.00
7784;DHT22;19359;51.402;6.778;2023-02-28T17:02:14;4.20;1.00
7784;DHT22;19359;51.402;6.778;2023-02-28T17:04:42;4.10;1.00
7784;DHT22;19359;51.402;6.778;2023-02-28T17:07:11;4.20;1.00
7784;DHT22;19359;51.402;6.778;2023-02-28T17:09:39;4.00;1.00
7784;DHT22;19359;51.402;6.778;2023-02-28T17:12:07;4.00;1.00
7784;DHT22;19359;51.402;6.778;2023-02-28T17:14:34;3.90;1.00
7784;DHT22;19359;51.402;6.778;2023-02-28T17:17:01;3.90;1.00
7784;DHT22;19359;51.402;6.778;2023-02-28T17:19:28;3.80;1.00
7784;DHT22;19359;51.402;6.778;2023-02-28T17:24:22;3.80;1.00
7784;DHT22;19359;51.402;6.778;2023-02-28T17:26:48;3.80;1.00
7784;DHT22;19359;51.402;6.778;2023-02-28T17:29:19;3.80;1.00
7784;DHT22;19359;51.402;6.778;2023-02-28T17:31:47;3.70;1.00
7784;DHT22;19359;51.402;6.778;2023-02-28T17:36:44;3.50;1.00
7784;DHT22;19359;51.402;6.778;2023-02-28T17:39:12;3.60;1.00
7784;DHT22;19359;51.402;6.778;2023-02-28T17:41:40;3.30;1.00
7784;DHT22;19359;51.402;6.778;2023-02-28T17:44:07;3.40;1.00
7784;DHT22;19359;51.402;6.778;2023-02-28T17:46:36;3.30;1.00
7784;DHT22;19359;51.402;6.778;2023-02-28T17:49:03;3.20;1.00
7784;DHT22;19359;51.402;6.778;2023-02-28T17:51:29;3.10;1.00
7784;DHT22;19359;51.402;6.778;2023-02-28T17:53:56;3.00;1.00
7784;DHT22;19359;51.402;6.778;2023-02-28T17:56:24;2.90;1.00
7784;DHT22;19359;51.402;6.778;2023-02-28T17:58:52;2.90;1.00
7784;DHT22;19359;51.402;6.778;2023-02-28T18:03:48;2.70;1.00
7784;DHT22;19359;51.402;6.778;2023-02-28T18:06:16;2.80;1.00
7784;DHT22;19359;51.402;6.778;2023-02-28T18:08:45;2.50;1.00
7784;DHT22;19359;51.402;6.778;2023-02-28T18:11:12;3.60;1.00
7784;DHT22;19359;51.402;6.778;2023-02-28T18:13:48;2.20;1.00
7784;DHT22;19359;51.402;6.778;2023-02-28T18:16:15;2.30;1.00
7784;DHT22;19359;51.402;6.778;2023-02-28T18:18:42;2.20;1.00
7784;DHT22;19359;51.402;6.778;2023-02-28T18:21:12;1.90;1.00
7784;DHT22;19359;51.402;6.778;2023-02-28T18:23:40;2.00;1.00
7784;DHT22;19359;51.402;6.778;2023-02-28T18:26:12;1.60;1.00
7784;DHT22;19359;51.402;6.778;2023-02-28T18:28:39;1.70;1.00
7784;DHT22;19359;51.402;6.778;2023-02-28T18:31:07;1.60;1.00
7784;DHT22;19359;51.402;6.778;2023-02-28T18:33:34;1.40;1.00
7784;DHT22;19359;51.402;6.778;2023-02-28T18:36:01;1.30;1.00
7784;DHT22;19359;51.402;6.778;2023-02-28T18:38:29;1.20;1.00
7784;DHT22;19359;51.402;6.778;2023-02-28T18:40:58;1.10;1.00
7784;DHT22;19359;51.402;6.778;2023-02-28T18:43:25;0.90;1.00
7784;DHT22;19359;51.402;6.778;2023-02-28T18:45:52;0.80;1.00
7784;DHT22;19359;51.402;6.778;2023-02-28T18:48:19;0.50;1.00
7784;DHT22;19359;51.402;6.778;2023-02-28T18:50:47;0.80;1.00
7784;DHT22;19359;51.402;6.778;2023-02-28T18:53:14;0.50;1.00
7784;DHT22;19359;51.402;6.778;2023-02-28T18:55:43;0.70;1.00
7784;DHT22;19359;51.402;6.778;2023-02-28T18:58:10;0.50;1.00
7784;DHT22;19359;51.402;6.778;2023-02-28T19:00:37;0.50;1.00
7784;DHT22;19359;51.402;6.778;2023-02-28T19:03:04;0.40;1.00
7784;DHT22;19359;51.402;6.778;2023-02-28T19:05:31;0.40;1.00
7784;DHT22;19359;51.402;6.778;2023-02-28T19:07:59;0.40;1.00
7784;DHT22;19359;51.402;6.778;2023-02-28T19:10:25;2.10;1.00
7784;DHT22;19359;51.402;6.778;2023-02-28T19:12:54;0.20;1.60
7784;DHT22;19359;51.402;6.778;2023-02-28T19:15:21;0.20;1.80